createdAt,value
2018-03-18T00:00:58.306Z,83.68
2018-03-18T00:02:08.361Z,84.06
2018-03-18T00:03:18.519Z,84.06
2018-03-18T00:04:28.565Z,83.87
2018-03-18T00:05:38.638Z,83.73
2018-03-18T00:06:48.690Z,83.73
2018-03-18T00:07:58.754Z,83.83
2018-03-18T00:09:08.622Z,83.64
2018-03-18T00:10:18.426Z,83.83
2018-03-18T00:11:28.249Z,83.83
2018-03-18T00:12:37.781Z,83.73
2018-03-18T00:13:47.605Z,83.64
2018-03-18T00:14:57.449Z,83.73
2018-03-18T00:16:07.247Z,83.83
2018-03-18T00:17:16.235Z,83.83
2018-03-18T00:18:26.294Z,83.83
2018-03-18T00:19:36.428Z,83.73
2018-03-18T00:20:46.264Z,84.01
2018-03-18T00:21:56.326Z,83.73
2018-03-18T00:23:06.120Z,84.01
2018-03-18T00:24:16.200Z,83.83
2018-03-18T00:25:26.252Z,83.73
2018-03-18T00:26:36.344Z,83.45
2018-03-18T00:27:46.414Z,84.01
2018-03-18T00:28:55.689Z,83.83
2018-03-18T00:30:05.666Z,83.83
2018-03-18T00:31:15.615Z,84.01
2018-03-18T00:32:25.904Z,83.26
2018-03-18T00:33:35.744Z,83.64
2018-03-18T00:34:45.602Z,83.83
2018-03-18T00:35:55.407Z,83.83
2018-03-18T00:37:05.480Z,83.83
2018-03-18T00:38:15.333Z,83.73
2018-03-18T00:39:24.588Z,83.73
2018-03-18T00:40:34.651Z,83.83
2018-03-18T00:41:44.453Z,83.83
2018-03-18T00:42:54.508Z,83.83
2018-03-18T00:44:04.563Z,84.01
2018-03-18T00:45:14.669Z,83.73
2018-03-18T00:46:24.457Z,83.64
2018-03-18T00:47:34.249Z,83.73
2018-03-18T00:48:44.162Z,83.73
2018-03-18T00:49:53.975Z,83.64
2018-03-18T00:51:03.752Z,83.73
2018-03-18T00:52:13.788Z,83.64
2018-03-18T00:53:23.329Z,83.73
2018-03-18T00:54:33.133Z,84.11
2018-03-18T00:55:43.192Z,83.73
2018-03-18T00:56:52.754Z,83.73
2018-03-18T00:58:02.279Z,83.92
2018-03-18T00:59:11.831Z,83.73
2018-03-18T01:00:21.891Z,84.01
2018-03-18T01:01:31.696Z,83.73
2018-03-18T01:02:41.281Z,84.01
2018-03-18T01:03:51.340Z,84.01
2018-03-18T01:05:00.881Z,83.26
2018-03-18T01:06:10.950Z,83.64
2018-03-18T01:07:21.004Z,83.73
2018-03-18T01:08:31.142Z,83.36
2018-03-18T01:09:41.199Z,83.73
2018-03-18T01:10:51.284Z,83.73
2018-03-18T01:12:01.338Z,83.54
2018-03-18T01:13:11.376Z,83.83
2018-03-18T01:14:21.472Z,83.64
2018-03-18T01:15:31.263Z,83.83
2018-03-18T01:16:41.056Z,83.73
2018-03-18T01:17:50.315Z,83.83
2018-03-18T01:19:00.355Z,83.83
2018-03-18T01:20:10.196Z,83.45
2018-03-18T01:21:20.247Z,83.83
2018-03-18T01:22:30.044Z,83.73
2018-03-18T01:23:39.830Z,84.11
2018-03-18T01:24:49.647Z,83.92
2018-03-18T01:25:59.448Z,83.83
2018-03-18T01:27:09.257Z,83.73
2018-03-18T01:28:19.316Z,83.83
2018-03-18T01:29:29.380Z,83.45
2018-03-18T01:30:39.173Z,84.01
2018-03-18T01:31:48.959Z,84.01
2018-03-18T01:32:59.015Z,83.92
2018-03-18T01:34:08.792Z,83.73
2018-03-18T01:35:18.849Z,83.64
2018-03-18T01:36:28.920Z,83.45
2018-03-18T01:37:38.453Z,83.92
2018-03-18T01:38:48.233Z,83.64
2018-03-18T01:39:58.280Z,84.01
2018-03-18T01:41:08.092Z,83.73
2018-03-18T01:42:17.879Z,83.73
2018-03-18T01:43:27.461Z,84.01
2018-03-18T01:44:37.550Z,83.73
2018-03-18T01:45:47.601Z,83.64
2018-03-18T01:46:57.657Z,83.45
2018-03-18T01:48:07.454Z,83.36
2018-03-18T01:49:16.980Z,83.36
2018-03-18T01:50:27.071Z,83.64
2018-03-18T01:51:37.129Z,83.64
2018-03-18T01:52:46.941Z,84.01
2018-03-18T01:53:56.773Z,84.01
2018-03-18T01:55:06.139Z,83.83
2018-03-18T01:56:15.936Z,83.45
2018-03-18T01:57:25.994Z,84.01
2018-03-18T01:58:35.261Z,83.92
2018-03-18T01:59:45.328Z,84.01
2018-03-18T02:00:55.152Z,83.73
2018-03-18T02:02:05.229Z,83.83
2018-03-18T02:03:15.029Z,83.73
2018-03-18T02:04:25.151Z,83.73
2018-03-18T02:05:35.210Z,84.01
2018-03-18T02:06:45.009Z,83.36
2018-03-18T02:07:54.804Z,83.83
2018-03-18T02:09:04.594Z,83.73
2018-03-18T02:10:14.662Z,83.64
2018-03-18T02:11:24.727Z,83.73
2018-03-18T02:12:34.585Z,83.64
2018-03-18T02:13:44.648Z,83.36
2018-03-18T02:14:54.437Z,84.01
2018-03-18T02:16:04.263Z,84.01
2018-03-18T02:17:14.331Z,83.45
2018-03-18T02:18:24.510Z,83.73
2018-03-18T02:19:34.017Z,83.92
2018-03-18T02:20:44.164Z,83.83
2018-03-18T02:21:54.207Z,83.92
2018-03-18T02:23:04.266Z,84.01
2018-03-18T02:24:14.321Z,83.73
2018-03-18T02:25:24.110Z,84.01
2018-03-18T02:26:34.171Z,83.92
2018-03-18T02:27:43.428Z,83.73
2018-03-18T02:28:53.488Z,84.01
2018-03-18T02:30:03.606Z,83.92
2018-03-18T02:31:13.687Z,83.73
2018-03-18T02:32:23.757Z,83.92
2018-03-18T02:33:33.283Z,84.01
2018-03-18T02:34:43.363Z,84.01
2018-03-18T02:35:52.965Z,84.01
2018-03-18T02:37:02.787Z,83.45
2018-03-18T02:38:12.580Z,83.36
2018-03-18T02:39:22.641Z,83.64
2018-03-18T02:40:32.433Z,83.36
2018-03-18T02:41:42.330Z,83.64
2018-03-18T02:42:52.400Z,83.64
2018-03-18T02:44:02.466Z,83.54
2018-03-18T02:45:12.516Z,83.26
2018-03-18T02:46:22.578Z,83.45
2018-03-18T02:47:32.131Z,83.73
2018-03-18T02:48:41.919Z,83.45
2018-03-18T02:49:51.460Z,83.64
2018-03-18T02:51:01.533Z,83.73
2018-03-18T02:52:11.060Z,83.64
2018-03-18T02:53:21.237Z,83.73
2018-03-18T02:54:31.352Z,83.83
2018-03-18T02:55:41.469Z,83.83
2018-03-18T02:56:51.270Z,83.83
2018-03-18T02:58:01.339Z,83.17
2018-03-18T02:59:11.454Z,83.54
2018-03-18T03:00:21.003Z,83.64
2018-03-18T03:01:30.534Z,83.83
2018-03-18T03:02:40.344Z,83.92
2018-03-18T03:03:50.149Z,84.01
2018-03-18T03:04:59.733Z,83.73
2018-03-18T03:06:19.134Z,83.64
2018-03-18T03:07:28.764Z,83.45
2018-03-18T03:39:25.533Z,78.36
2018-03-18T03:40:35.302Z,79.02
2018-03-18T03:41:45.086Z,79.49
2018-03-18T03:42:55.132Z,80.72
2018-03-18T03:44:05.189Z,81.57
2018-03-18T03:45:15.304Z,82.51
2018-03-18T03:46:25.372Z,82.42
2018-03-18T03:47:35.423Z,83.17
2018-03-18T03:48:45.486Z,83.55
2018-03-18T03:49:55.547Z,84.03
2018-03-18T03:51:05.653Z,84.12
2018-03-18T03:52:15.702Z,84.12
2018-03-18T03:53:25.743Z,84.45
2018-03-18T03:54:35.802Z,84.26
2018-03-18T03:55:45.858Z,84.35
2018-03-18T03:56:55.958Z,84.16
2018-03-18T03:58:06.012Z,84.16
2018-03-18T03:59:16.077Z,84.35
2018-03-18T04:00:26.137Z,84.26
2018-03-18T04:01:36.181Z,84.07
2018-03-18T04:02:46.052Z,84.01
2018-03-18T04:03:56.108Z,84.16
2018-03-18T04:05:05.905Z,84.16
2018-03-18T04:06:15.422Z,84.01
2018-03-18T04:07:24.948Z,83.92
2018-03-18T04:08:34.526Z,83.59
2018-03-18T04:09:44.586Z,83.78
2018-03-18T04:10:54.189Z,83.73
2018-03-18T04:12:04.241Z,83.83
2018-03-18T04:13:14.289Z,83.73
2018-03-18T04:14:24.084Z,83.54
2018-03-18T04:15:33.330Z,83.73
2018-03-18T04:16:42.856Z,83.78
2018-03-18T04:17:52.645Z,83.54
2018-03-18T04:19:02.712Z,83.69
2018-03-18T04:20:12.523Z,83.59
2018-03-18T04:21:22.049Z,83.59
2018-03-18T04:22:31.845Z,83.88
2018-03-18T04:23:41.674Z,83.88
2018-03-18T04:24:51.484Z,83.59
2018-03-18T04:26:01.536Z,83.78
2018-03-18T04:27:11.083Z,83.59
2018-03-18T04:28:20.860Z,84.01
2018-03-18T04:29:30.673Z,83.97
2018-03-18T04:30:40.731Z,84.01
2018-03-18T04:31:50.786Z,83.73
2018-03-18T04:33:00.567Z,83.59
2018-03-18T04:34:10.633Z,83.78
2018-03-18T04:35:20.679Z,83.88
2018-03-18T04:36:30.203Z,83.92
2018-03-18T04:37:40.296Z,83.97
2018-03-18T04:38:50.080Z,83.97
2018-03-18T04:40:00.146Z,83.69
2018-03-18T04:41:10.214Z,83.54
2018-03-18T04:42:20.267Z,83.59
2018-03-18T04:43:30.383Z,83.78
2018-03-18T04:44:40.184Z,83.78
2018-03-18T04:45:49.706Z,83.59
2018-03-18T04:46:59.758Z,83.59
2018-03-18T04:48:09.288Z,83.22
2018-03-18T04:49:19.204Z,83.31
2018-03-18T04:50:29.308Z,83.03
2018-03-18T04:51:39.360Z,83.4
2018-03-18T04:52:49.404Z,83.59
2018-03-18T04:53:59.181Z,83.78
2018-03-18T04:55:09.226Z,83.59
2018-03-18T04:56:18.758Z,83.59
2018-03-18T04:57:28.282Z,83.4
2018-03-18T04:58:38.067Z,83.31
2018-03-18T04:59:48.124Z,83.03
2018-03-18T05:00:57.956Z,83.07
2018-03-18T05:02:08.014Z,83.17
2018-03-18T05:03:17.802Z,83.36
2018-03-18T05:04:27.867Z,83.36
2018-03-18T05:05:37.665Z,83.26
2018-03-18T05:06:47.727Z,83.26
2018-03-18T05:07:57.768Z,83.17
2018-03-18T05:09:07.284Z,83.64
2018-03-18T05:10:17.343Z,83.17
2018-03-18T05:11:27.132Z,83.54
2018-03-18T05:12:37.244Z,83.36
2018-03-18T05:13:47.360Z,83.64
2018-03-18T05:14:57.173Z,83.64
2018-03-18T05:16:06.722Z,83.36
2018-03-18T05:17:16.515Z,83.36
2018-03-18T05:18:26.292Z,83.26
2018-03-18T05:19:36.352Z,83.64
2018-03-18T05:20:46.134Z,82.88
2018-03-18T05:21:55.377Z,82.98
2018-03-18T05:23:05.163Z,82.88
2018-03-18T05:24:14.955Z,82.98
2018-03-18T05:25:25.021Z,83.07
2018-03-18T05:26:35.067Z,83.07
2018-03-18T05:27:44.581Z,82.98
2018-03-18T05:28:54.120Z,82.88
2018-03-18T05:30:04.168Z,82.88
2018-03-18T05:31:14.215Z,82.88
2018-03-18T05:32:24.277Z,83.07
2018-03-18T05:33:34.328Z,82.88
2018-03-18T05:34:43.873Z,83.07
2018-03-18T05:35:53.935Z,82.5
2018-03-18T05:37:03.459Z,82.6
2018-03-18T05:38:13.497Z,82.88
2018-03-18T05:39:23.306Z,82.79
2018-03-18T05:40:33.368Z,82.6
2018-03-18T05:41:43.466Z,82.79
2018-03-18T05:42:53.528Z,82.69
2018-03-18T05:44:03.582Z,82.69
2018-03-18T05:45:13.379Z,82.88
2018-03-18T05:46:23.457Z,83.07
2018-03-18T05:47:33.559Z,82.79
2018-03-18T05:48:43.335Z,82.79
2018-03-18T05:49:52.882Z,82.79
2018-03-18T05:51:02.933Z,82.88
2018-03-18T05:52:12.731Z,82.88
2018-03-18T05:53:22.840Z,82.79
2018-03-18T05:54:32.898Z,82.79
2018-03-18T05:55:42.699Z,82.79
2018-03-18T05:56:52.751Z,82.88
2018-03-18T05:58:02.829Z,82.69
2018-03-18T05:59:12.636Z,82.79
2018-03-18T06:00:22.679Z,82.79
2018-03-18T06:01:32.740Z,82.79
2018-03-18T06:02:42.529Z,82.79
2018-03-18T06:03:52.633Z,82.88
2018-03-18T06:05:02.688Z,82.69
2018-03-18T06:06:12.493Z,82.79
2018-03-18T06:07:22.285Z,82.41
2018-03-18T06:08:32.092Z,82.6
2018-03-18T06:09:41.872Z,82.41
2018-03-18T06:10:51.394Z,82.41
2018-03-18T06:12:01.503Z,82.6
2018-03-18T06:13:11.576Z,82.64
2018-03-18T06:14:21.648Z,82.64
2018-03-18T06:15:31.438Z,81.98
2018-03-18T06:16:41.570Z,81.88
2018-03-18T06:17:51.359Z,82.07
2018-03-18T06:19:01.276Z,82.07
2018-03-18T06:20:11.341Z,82.26
2018-03-18T06:21:21.405Z,81.98
2018-03-18T06:22:31.528Z,82.26
2018-03-18T06:23:41.314Z,82.35
2018-03-18T06:24:51.203Z,82.26
2018-03-18T06:26:01.172Z,82.26
2018-03-18T06:27:11.223Z,81.79
2018-03-18T06:28:21.072Z,81.7
2018-03-18T06:29:31.137Z,81.98
2018-03-18T06:30:41.214Z,81.98
2018-03-18T06:31:51.283Z,81.79
2018-03-18T06:33:01.076Z,81.98
2018-03-18T06:34:11.128Z,81.98
2018-03-18T06:35:20.921Z,81.98
2018-03-18T06:36:30.436Z,81.41
2018-03-18T06:37:40.501Z,81.41
2018-03-18T06:38:50.547Z,81.41
2018-03-18T06:40:00.342Z,81.51
2018-03-18T06:41:10.471Z,81.51
2018-03-18T06:42:20.530Z,81.51
2018-03-18T06:43:30.312Z,81.41
2018-03-18T06:44:40.101Z,81.6
2018-03-18T06:45:50.223Z,81.74
2018-03-18T06:47:00.046Z,81.55
2018-03-18T06:48:09.602Z,81.93
2018-03-18T06:49:19.648Z,81.45
2018-03-18T06:50:29.428Z,81.55
2018-03-18T06:51:39.215Z,81.93
2018-03-18T06:52:49.264Z,81.55
2018-03-18T06:53:59.400Z,81.93
2018-03-18T06:55:09.040Z,82.02
2018-03-18T06:56:19.118Z,81.74
2018-03-18T06:57:29.173Z,81.64
2018-03-18T06:58:38.736Z,81.26
2018-03-18T06:59:48.523Z,81.83
2018-03-18T07:00:58.322Z,81.93
2018-03-18T07:02:08.120Z,82.02
2018-03-18T07:03:17.908Z,82.02
2018-03-18T07:04:27.710Z,81.36
2018-03-18T07:05:37.826Z,81.93
2018-03-18T07:06:47.945Z,81.87
2018-03-18T07:07:57.745Z,81.87
2018-03-18T07:09:07.792Z,81.96
2018-03-18T07:10:17.850Z,81.59
2018-03-18T07:11:27.651Z,81.68
2018-03-18T07:12:37.767Z,81.49
2018-03-18T07:13:47.563Z,81.4
2018-03-18T07:14:57.370Z,81.49
2018-03-18T07:16:07.181Z,81.49
2018-03-18T07:17:16.970Z,81.68
2018-03-18T07:18:27.092Z,81.49
2018-03-18T07:19:36.883Z,81.4
2018-03-18T07:20:46.685Z,81.49
2018-03-18T07:21:56.212Z,81.3
2018-03-18T07:23:05.754Z,81.4
2018-03-18T07:24:15.549Z,81.3
2018-03-18T07:25:25.652Z,81.06
2018-03-18T07:26:35.553Z,81.25
2018-03-18T07:27:45.340Z,81.53
2018-03-18T07:28:55.152Z,81.44
2018-03-18T07:30:04.959Z,81.34
2018-03-18T07:31:15.003Z,81.44
2018-03-18T07:32:25.059Z,81.34
2018-03-18T07:33:35.188Z,81.44
2018-03-18T07:34:44.982Z,81.44
2018-03-18T07:35:54.536Z,80.87
2018-03-18T07:37:04.334Z,81.34
2018-03-18T07:38:13.996Z,81.44
2018-03-18T07:39:24.718Z,81.53
2018-03-18T07:40:34.847Z,81.53
2018-03-18T07:41:44.916Z,81.53
2018-03-18T07:42:54.426Z,81.15
2018-03-18T07:44:04.521Z,81.25
2018-03-18T07:45:14.316Z,81.06
2018-03-18T07:46:23.860Z,81.06
2018-03-18T07:47:33.674Z,81.34
2018-03-18T07:48:43.488Z,81.53
2018-03-18T07:49:53.072Z,81.34
2018-03-18T07:51:03.138Z,81.53
2018-03-18T07:52:12.943Z,81.44
2018-03-18T07:53:23.049Z,81.44
2018-03-18T07:54:32.860Z,81.15
2018-03-18T07:55:42.440Z,81.15
2018-03-18T07:56:52.514Z,81.57
2018-03-18T07:58:02.054Z,81.57
2018-03-18T07:59:12.111Z,80.63
2018-03-18T08:00:22.169Z,80.63
2018-03-18T08:01:32.267Z,81.29
2018-03-18T08:02:42.337Z,80.91
2018-03-18T08:03:52.135Z,81.29
2018-03-18T08:05:02.215Z,81.01
2018-03-18T08:06:11.722Z,80.72
2018-03-18T08:07:21.851Z,80.82
2018-03-18T08:08:31.386Z,80.91
2018-03-18T08:09:40.978Z,81.2
2018-03-18T08:10:51.047Z,80.63
2018-03-18T08:12:00.842Z,81.57
2018-03-18T08:13:10.714Z,81.86
2018-03-18T08:14:20.765Z,80.82
2018-03-18T08:15:30.866Z,80.72
2018-03-18T08:16:40.935Z,80.58
2018-03-18T08:17:51.068Z,80.87
2018-03-18T08:19:01.163Z,81.1
2018-03-18T08:20:11.227Z,80.82
2018-03-18T08:21:21.301Z,81.01
2018-03-18T08:22:31.130Z,80.72
2018-03-18T08:23:41.195Z,80.91
2018-03-18T08:24:51.033Z,80.63
2018-03-18T08:26:01.078Z,80.72
2018-03-18T08:27:11.154Z,80.44
2018-03-18T08:28:21.214Z,80.63
2018-03-18T08:29:30.768Z,80.72
2018-03-18T08:30:40.887Z,80.72
2018-03-18T08:31:50.694Z,80.53
2018-03-18T08:33:00.740Z,80.53
2018-03-18T08:34:10.808Z,80.53
2018-03-18T08:35:20.383Z,80.53
2018-03-18T08:36:30.223Z,80.53
2018-03-18T08:37:40.022Z,80.63
2018-03-18T08:38:50.156Z,80.91
2018-03-18T08:40:00.227Z,80.91
2018-03-18T08:41:10.310Z,80.72
2018-03-18T08:42:20.157Z,81.29
2018-03-18T08:43:30.227Z,81.1
2018-03-18T08:44:40.290Z,80.95
2018-03-18T08:45:50.372Z,80.57
2018-03-18T08:47:00.426Z,80.38
2018-03-18T08:48:10.495Z,80.38
2018-03-18T08:49:20.568Z,80.57
2018-03-18T08:50:30.629Z,80.48
2018-03-18T08:51:40.772Z,80.48
2018-03-18T08:52:50.829Z,81.05
2018-03-18T08:54:00.888Z,80.95
2018-03-18T08:55:10.957Z,81.14
2018-03-18T08:56:20.739Z,81.33
2018-03-18T08:57:30.800Z,81.33
2018-03-18T08:58:40.862Z,80.95
2018-03-18T08:59:50.941Z,81.33
2018-03-18T09:01:01.006Z,81.24
2018-03-18T09:02:10.791Z,81.14
2018-03-18T09:03:20.845Z,81.05
2018-03-18T09:04:30.641Z,81.62
2018-03-18T09:05:40.732Z,80.95
2018-03-18T09:06:50.275Z,80.86
2018-03-18T09:08:00.080Z,80.86
2018-03-18T09:09:09.909Z,80.95
2018-03-18T09:10:19.529Z,80.86
2018-03-18T09:11:29.646Z,80.67
2018-03-18T09:12:39.718Z,80.86
2018-03-18T09:13:49.800Z,80.29
2018-03-18T09:14:59.861Z,80.67
2018-03-18T09:16:09.665Z,80.67
2018-03-18T09:17:19.804Z,80.48
2018-03-18T09:18:29.632Z,80.67
2018-03-18T09:19:39.433Z,80.57
2018-03-18T09:20:49.276Z,80.48
2018-03-18T09:21:59.369Z,80.67
2018-03-18T09:23:09.329Z,80.95
2018-03-18T09:24:19.409Z,80.67
2018-03-18T09:25:29.213Z,80.76
2018-03-18T09:26:39.305Z,80.67
2018-03-18T09:27:49.135Z,81.05
2018-03-18T09:28:58.956Z,80.38
2018-03-18T09:30:09.012Z,80.38
2018-03-18T09:31:19.115Z,80.76
2018-03-18T09:32:28.648Z,80.67
2018-03-18T09:33:38.710Z,80.76
2018-03-18T09:34:48.622Z,80.76
2018-03-18T09:35:58.689Z,80.8
2018-03-18T09:37:08.747Z,81.09
2018-03-18T09:38:18.848Z,80.52
2018-03-18T09:39:29.021Z,79.95
2018-03-18T09:40:39.101Z,80.14
2018-03-18T09:41:48.394Z,80.24
2018-03-18T09:42:58.493Z,80.04
2018-03-18T09:44:08.562Z,79.95
2018-03-18T09:45:18.637Z,80.14
2018-03-18T09:46:28.765Z,80.04
2018-03-18T09:47:38.592Z,80.33
2018-03-18T09:48:48.464Z,80.52
2018-03-18T09:49:58.329Z,80.24
2018-03-18T09:51:08.151Z,80.43
2018-03-18T09:52:18.024Z,80.24
2018-03-18T09:53:27.841Z,79.66
2018-03-18T09:54:37.936Z,79.61
2018-03-18T09:55:47.737Z,79.9
2018-03-18T09:56:57.286Z,79.61
2018-03-18T09:58:07.170Z,79.33
2018-03-18T09:59:16.967Z,79.33
2018-03-18T10:00:27.042Z,79.8
2018-03-18T10:01:36.856Z,79.23
2018-03-18T10:02:46.384Z,79.46
2018-03-18T10:03:56.507Z,78.8
2018-03-18T10:05:06.558Z,79.08
2018-03-18T10:06:16.111Z,78.99
2018-03-18T10:07:25.949Z,78.64
2018-03-18T10:08:35.763Z,78.17
2018-03-18T10:09:45.620Z,78.27
2018-03-18T10:10:55.689Z,78.4
2018-03-18T10:12:05.499Z,78.5
2018-03-18T10:13:14.781Z,78.5
2018-03-18T10:14:24.930Z,78.4
2018-03-18T10:15:34.494Z,78.4
2018-03-18T10:16:44.552Z,78.5
2018-03-18T10:17:54.343Z,78.88
2018-03-18T10:19:03.961Z,79.06
2018-03-18T10:20:14.140Z,79.06
2018-03-18T10:21:24.401Z,79.25
2018-03-18T10:22:34.207Z,78.97
2018-03-18T10:23:44.022Z,78.88
2018-03-18T10:24:54.102Z,79.25
2018-03-18T10:26:03.959Z,78.97
2018-03-18T10:27:14.903Z,79.06
2018-03-18T10:28:25.766Z,78.97
2018-03-18T10:29:36.295Z,78.63
2018-03-18T10:30:46.921Z,78.4
2018-03-18T10:31:56.699Z,78.44
2018-03-18T10:33:06.595Z,78.44
2018-03-18T10:34:16.856Z,78.44
2018-03-18T10:35:26.944Z,78.53
2018-03-18T10:36:36.748Z,78.19
2018-03-18T10:37:46.569Z,77.34
2018-03-18T10:38:56.718Z,77.91
2018-03-18T10:40:06.829Z,77.66
2018-03-18T10:41:16.919Z,77.76
2018-03-18T10:42:26.989Z,77.47
2018-03-18T10:43:36.836Z,77.66
2018-03-18T10:44:46.966Z,76.94
2018-03-18T10:45:56.780Z,76.94
2018-03-18T10:47:06.927Z,76.94
2018-03-18T10:48:17.309Z,77.51
2018-03-18T10:49:27.388Z,77.32
2018-03-18T10:50:37.312Z,77.7
2018-03-18T10:51:46.889Z,78.08
2018-03-18T10:52:56.708Z,77.98
2018-03-18T10:54:06.282Z,77.8
2018-03-18T10:55:16.119Z,78.61
2018-03-18T10:56:25.789Z,78.14
2018-03-18T10:57:35.607Z,78.33
2018-03-18T10:58:45.711Z,78.23
2018-03-18T10:59:55.266Z,78.04
2018-03-18T11:01:05.386Z,78.42
2018-03-18T11:02:15.515Z,78.23
2018-03-18T11:03:25.327Z,78.8
2018-03-18T11:04:35.437Z,78.42
2018-03-18T11:05:45.559Z,78.29
2018-03-18T11:06:55.376Z,78.67
2018-03-18T11:08:05.504Z,79.05
2018-03-18T11:09:15.368Z,78.77
2018-03-18T11:10:25.494Z,78.96
2018-03-18T11:11:35.642Z,79.14
2018-03-18T11:12:45.725Z,78.86
2018-03-18T11:13:55.857Z,78.96
2018-03-18T11:15:05.966Z,79.62
2018-03-18T11:16:16.317Z,79.72
2018-03-18T11:17:26.535Z,79.33
2018-03-18T11:18:36.342Z,79.62
2018-03-18T11:19:46.420Z,79.68
2018-03-18T11:20:56.518Z,79.62
2018-03-18T11:22:06.614Z,79.72
2018-03-18T11:23:16.703Z,79.86
2018-03-18T11:24:26.860Z,79.49
2018-03-18T11:25:36.938Z,79.86
2018-03-18T11:26:47.016Z,80.87
2018-03-18T11:27:57.109Z,81.06
2018-03-18T11:29:06.924Z,81.12
2018-03-18T11:30:17.012Z,81.49
2018-03-18T11:31:27.297Z,81.4
2018-03-18T11:32:37.396Z,81.21
2018-03-18T11:33:47.486Z,80.83
2018-03-18T11:34:57.295Z,80.4
2018-03-18T11:36:07.111Z,80.11
2018-03-18T11:37:17.285Z,79.92
2018-03-18T11:38:27.369Z,79.83
2018-03-18T11:39:37.185Z,79.63
2018-03-18T11:40:47.256Z,79.44
2018-03-18T11:41:57.052Z,78.82
2018-03-18T11:43:07.132Z,79.11
2018-03-18T11:44:16.963Z,79.11
2018-03-18T11:45:26.847Z,78.63
2018-03-18T11:46:36.675Z,79.11
2018-03-18T11:47:46.774Z,78.72
2018-03-18T11:48:56.928Z,79.11
2018-03-18T11:50:06.761Z,79.58
2018-03-18T11:51:16.563Z,79.58
2018-03-18T11:52:26.657Z,79.39
2018-03-18T11:53:36.491Z,79.68
2018-03-18T11:54:47.367Z,79.77
2018-03-18T11:55:57.394Z,79.68
2018-03-18T11:57:07.684Z,79.86
2018-03-18T11:58:17.521Z,80.24
2018-03-18T11:59:27.389Z,80.24
2018-03-18T12:00:37.668Z,80.15
2018-03-18T12:01:47.486Z,80.34
2018-03-18T12:02:57.327Z,79.96
2018-03-18T12:04:07.643Z,79.77
2018-03-18T12:05:17.732Z,80.05
2018-03-18T12:06:27.641Z,80.44
2018-03-18T12:07:37.615Z,80.34
2018-03-18T12:08:47.234Z,80.34
2018-03-18T12:09:57.343Z,79.86
2018-03-18T12:11:07.417Z,79.81
2018-03-18T12:12:17.360Z,79.52
2018-03-18T12:13:27.516Z,79.81
2018-03-18T12:14:37.134Z,79.86
2018-03-18T12:15:46.968Z,79.77
2018-03-18T12:16:56.841Z,80.1
2018-03-18T12:18:06.733Z,79.33
2018-03-18T12:19:16.836Z,79.62
2018-03-18T12:20:26.928Z,79.62
2018-03-18T12:21:37.094Z,79.72
2018-03-18T12:22:46.639Z,79.81
2018-03-18T12:23:57.040Z,80.15
2018-03-18T12:25:06.860Z,80.24
2018-03-18T12:26:16.960Z,81.01
2018-03-18T12:27:27.049Z,80.91
2018-03-18T12:28:36.859Z,80.58
2018-03-18T12:29:46.731Z,81.16
2018-03-18T12:30:56.646Z,81.25
2018-03-18T12:32:06.755Z,80.87
2018-03-18T12:33:16.593Z,80.87
2018-03-18T12:34:26.678Z,80.77
2018-03-18T12:35:36.515Z,81.06
2018-03-18T12:36:46.630Z,80.68
2018-03-18T12:37:56.617Z,81.12
2018-03-18T12:39:06.801Z,81.68
2018-03-18T12:40:17.164Z,81.4
2018-03-18T12:41:27.345Z,81.4
2018-03-18T12:42:37.426Z,81.12
2018-03-18T12:43:47.508Z,81.12
2018-03-18T12:44:57.595Z,81.21
2018-03-18T12:46:07.690Z,81.02
2018-03-18T12:47:17.570Z,81.21
2018-03-18T12:48:27.389Z,80.93
2018-03-18T12:49:37.213Z,80.83
2018-03-18T12:50:47.316Z,80.93
2018-03-18T12:51:57.436Z,81.02
2018-03-18T12:53:07.578Z,81.12
2018-03-18T12:54:17.475Z,80.83
2018-03-18T12:55:27.288Z,80.93
2018-03-18T12:56:37.393Z,80.83
2018-03-18T12:57:47.492Z,81.12
2018-03-18T12:58:57.400Z,80.55
2018-03-18T13:00:07.493Z,80.83
2018-03-18T13:01:17.560Z,80.55
2018-03-18T13:02:27.651Z,80.93
2018-03-18T13:03:37.728Z,80.55
2018-03-18T13:04:47.285Z,80.64
2018-03-18T13:05:57.119Z,81.06
2018-03-18T13:07:07.082Z,81.49
2018-03-18T13:08:17.458Z,81.3
2018-03-18T13:09:27.323Z,81.3
2018-03-18T13:10:37.183Z,80.93
2018-03-18T13:11:46.743Z,81.59
2018-03-18T13:12:56.329Z,81.74
2018-03-18T13:14:05.857Z,81.26
2018-03-18T13:15:15.910Z,81.26
2018-03-18T13:16:26.068Z,81.65
2018-03-18T13:17:35.901Z,81.65
2018-03-18T13:18:45.423Z,81.84
2018-03-18T13:19:55.226Z,81.93
2018-03-18T13:21:05.074Z,81.93
2018-03-18T13:22:15.201Z,81.88
2018-03-18T13:23:24.787Z,82.27
2018-03-18T13:24:34.867Z,82.27
2018-03-18T13:25:44.780Z,81.88
2018-03-18T13:26:54.824Z,82.08
2018-03-18T13:28:04.979Z,81.51
2018-03-18T13:29:14.797Z,81.36
2018-03-18T13:30:24.863Z,81.7
2018-03-18T13:31:34.685Z,81.41
2018-03-18T13:32:44.740Z,81.88
2018-03-18T13:33:54.842Z,81.88
2018-03-18T13:35:04.631Z,81.98
2018-03-18T13:36:14.745Z,81.88
2018-03-18T13:37:24.826Z,81.7
2018-03-18T13:38:34.915Z,81.7
2018-03-18T13:39:44.823Z,81.88
2018-03-18T13:40:55.368Z,81.7
2018-03-18T13:42:05.445Z,81.79
2018-03-18T13:43:15.533Z,81.88
2018-03-18T13:44:25.741Z,81.88
2018-03-18T13:45:36.032Z,82.17
2018-03-18T13:46:46.229Z,81.88
2018-03-18T13:47:56.196Z,82.08
2018-03-18T13:49:06.066Z,81.6
2018-03-18T13:50:15.946Z,82.27
2018-03-18T13:51:25.768Z,81.88
2018-03-18T13:52:35.579Z,81.88
2018-03-18T13:53:45.659Z,81.7
2018-03-18T13:54:55.565Z,81.6
2018-03-18T13:56:05.429Z,81.79
2018-03-18T13:57:15.252Z,81.79
2018-03-18T13:58:25.333Z,82.08
2018-03-18T13:59:35.450Z,81.79
2018-03-18T14:00:45.526Z,81.98
2018-03-18T14:01:55.393Z,81.79
2018-03-18T14:03:05.485Z,82.13
2018-03-18T14:04:15.591Z,82.04
2018-03-18T14:05:25.631Z,82.98
2018-03-18T14:06:35.775Z,82.32
2018-03-18T14:07:45.842Z,82.51
2018-03-18T14:08:55.932Z,82.51
2018-03-18T14:10:06.031Z,82.04
2018-03-18T14:11:16.111Z,82.32
2018-03-18T14:12:25.914Z,82.51
2018-03-18T14:13:36.060Z,82.32
2018-03-18T14:14:46.137Z,82.32
2018-03-18T14:15:56.235Z,82.23
2018-03-18T14:17:05.791Z,82.23
2018-03-18T14:18:15.089Z,82.51
2018-03-18T14:19:25.250Z,82.51
2018-03-18T14:20:35.076Z,81.75
2018-03-18T14:21:44.917Z,82.04
2018-03-18T14:22:54.470Z,81.94
2018-03-18T14:24:04.308Z,81.94
2018-03-18T14:25:14.458Z,81.51
2018-03-18T14:26:24.584Z,81.98
2018-03-18T14:27:34.738Z,82.08
2018-03-18T14:28:44.852Z,81.88
2018-03-18T14:29:54.995Z,81.98
2018-03-18T14:31:05.203Z,81.79
2018-03-18T14:32:15.322Z,81.98
2018-03-18T14:33:25.173Z,81.7
2018-03-18T14:34:35.010Z,82.17
2018-03-18T14:35:44.873Z,82.36
2018-03-18T14:36:54.687Z,81.6
2018-03-18T14:38:04.254Z,81.98
2018-03-18T14:39:14.092Z,81.94
2018-03-18T14:40:24.226Z,81.66
2018-03-18T14:41:33.780Z,81.94
2018-03-18T14:42:43.677Z,82.13
2018-03-18T14:43:53.814Z,81.79
2018-03-18T14:45:04.106Z,81.79
2018-03-18T14:46:14.221Z,81.98
2018-03-18T14:47:23.788Z,81.51
2018-03-18T14:48:33.659Z,82.08
2018-03-18T14:49:43.754Z,81.98
2018-03-18T14:50:53.836Z,81.7
2018-03-18T14:52:03.390Z,81.6
2018-03-18T14:53:13.470Z,81.32
2018-03-18T14:54:23.585Z,81.6
2018-03-18T14:55:33.689Z,81.74
2018-03-18T14:56:43.532Z,81.88
2018-03-18T14:57:53.369Z,81.88
2018-03-18T14:59:03.478Z,82.08
2018-03-18T15:00:13.382Z,82.17
2018-03-18T15:01:23.484Z,81.98
2018-03-18T15:02:33.715Z,81.88
2018-03-18T15:03:43.904Z,81.98
2018-03-18T15:04:54.025Z,81.88
2018-03-18T15:06:03.902Z,82.27
2018-03-18T15:07:13.782Z,82.17
2018-03-18T15:08:23.910Z,82.17
2018-03-18T15:09:34.014Z,82.36
2018-03-18T15:10:44.139Z,82.17
2018-03-18T15:11:53.526Z,82.55
2018-03-18T15:13:03.370Z,82.32
2018-03-18T15:14:13.462Z,82.32
2018-03-18T15:15:23.517Z,82.23
2018-03-18T15:16:33.372Z,82.7
2018-03-18T15:17:43.457Z,82.98
2018-03-18T15:18:53.533Z,83.17
2018-03-18T15:20:03.609Z,83.08
2018-03-18T15:21:13.714Z,82.89
2018-03-18T15:22:23.547Z,83.27
2018-03-18T15:23:33.687Z,82.98
2018-03-18T15:24:43.546Z,82.94
2018-03-18T15:25:53.604Z,82.75
2018-03-18T15:27:03.423Z,83.23
2018-03-18T15:28:12.963Z,83.23
2018-03-18T15:29:23.106Z,83.8
2018-03-18T15:30:32.945Z,83.89
2018-03-18T15:31:42.788Z,83.23
2018-03-18T15:32:52.323Z,82.75
2018-03-18T15:34:02.408Z,82.85